createdAt,value
2019-02-24T00:00:08.443Z,24.9
2019-02-24T00:00:58.097Z,24.9
2019-02-24T00:01:47.960Z,24.9
2019-02-24T00:02:38.471Z,24.9
2019-02-24T00:03:28.534Z,24.9
2019-02-24T00:04:18.828Z,24.9
2019-02-24T00:05:08.098Z,24.8
2019-02-24T00:05:58.425Z,24.9
2019-02-24T00:06:48.456Z,24.8
2019-02-24T00:07:39.317Z,24.9
2019-02-24T00:08:28.302Z,24.8
2019-02-24T00:09:19.479Z,24.8
2019-02-24T00:10:09.255Z,24.8
2019-02-24T00:10:59.332Z,24.8
2019-02-24T00:11:49.915Z,24.8
2019-02-24T00:12:39.923Z,24.7
2019-02-24T00:13:30.002Z,24.8
2019-02-24T00:14:18.970Z,24.7
2019-02-24T00:15:09.582Z,24.7
2019-02-24T00:15:59.604Z,24.6
2019-02-24T00:16:49.952Z,24.6
2019-02-24T00:17:39.437Z,24.6
2019-02-24T00:18:29.480Z,24.7
2019-02-24T00:19:19.289Z,24.6
2019-02-24T00:20:09.889Z,24.7
2019-02-24T00:21:00.540Z,24.6
2019-02-24T00:21:50.026Z,24.6
2019-02-24T00:22:40.321Z,24.6
2019-02-24T00:23:30.404Z,24.5
2019-02-24T00:24:19.334Z,24.5
2019-02-24T00:25:10.036Z,24.5
2019-02-24T00:25:59.519Z,24.5
2019-02-24T00:26:50.342Z,24.5
2019-02-24T00:27:40.247Z,24.5
2019-02-24T00:28:29.976Z,24.4
2019-02-24T00:29:20.344Z,24.4
2019-02-24T00:30:10.669Z,24.4
2019-02-24T00:30:59.599Z,24.4
2019-02-24T00:31:50.564Z,24.4
2019-02-24T00:32:42.121Z,24.4
2019-02-24T00:33:30.658Z,24.4
2019-02-24T00:34:20.646Z,24.4
2019-02-24T00:35:10.463Z,24.4
2019-02-24T00:36:00.819Z,24.4
2019-02-24T00:36:49.987Z,24.3
2019-02-24T00:37:41.123Z,24.3
2019-02-24T00:38:31.146Z,24.3
2019-02-24T00:39:21.006Z,24.3
2019-02-24T00:40:11.565Z,24.3
2019-02-24T00:41:01.313Z,24.3
2019-02-24T00:41:51.401Z,24.3
2019-02-24T00:42:41.760Z,24.2
2019-02-24T00:43:31.243Z,24.2
2019-02-24T00:44:21.333Z,24.2
2019-02-24T00:45:10.814Z,24.2
2019-02-24T00:46:01.653Z,24.2
2019-02-24T00:46:51.280Z,24.2
2019-02-24T00:47:42.091Z,24.3
2019-02-24T00:48:32.435Z,24.1
2019-02-24T00:49:22.195Z,24.2
2019-02-24T00:50:11.960Z,24.1
2019-02-24T00:51:02.275Z,24.1
2019-02-24T00:51:51.857Z,24
2019-02-24T00:52:41.845Z,24.1
2019-02-24T00:53:32.180Z,24
2019-02-24T00:54:21.783Z,24.1
2019-02-24T00:55:11.840Z,24.1
2019-02-24T00:56:02.407Z,24.1
2019-02-24T00:56:52.110Z,24
2019-02-24T00:57:41.435Z,24
2019-02-24T00:58:31.450Z,24
2019-02-24T00:59:22.375Z,24
2019-02-24T01:00:12.135Z,24
2019-02-24T01:01:01.657Z,23.9
2019-02-24T01:01:52.512Z,23.9
2019-02-24T01:02:42.855Z,23.9
2019-02-24T01:03:32.348Z,23.9
2019-02-24T01:04:22.452Z,23.8
2019-02-24T01:05:12.499Z,23.8
2019-02-24T01:06:02.530Z,23.8
2019-02-24T01:06:52.632Z,23.8
2019-02-24T01:07:42.179Z,23.7
2019-02-24T01:08:31.871Z,23.7
2019-02-24T01:09:22.503Z,23.6
2019-02-24T01:10:12.577Z,23.6
2019-02-24T01:11:03.248Z,23.6
2019-02-24T01:11:52.932Z,23.6
2019-02-24T01:12:42.739Z,23.6
2019-02-24T01:13:33.059Z,23.4
2019-02-24T01:14:23.163Z,23.4
2019-02-24T01:15:13.206Z,23.4
2019-02-24T01:16:03.497Z,23.4
2019-02-24T01:16:53.042Z,23.4
2019-02-24T01:17:43.627Z,23.4
2019-02-24T01:18:33.405Z,23.4
2019-02-24T01:19:22.699Z,23.3
2019-02-24T01:20:13.248Z,23.3
2019-02-24T01:21:03.646Z,23.3
2019-02-24T01:21:53.356Z,23.3
2019-02-24T01:22:43.979Z,23.3
2019-02-24T01:23:34.094Z,23.2
2019-02-24T01:24:23.248Z,23.1
2019-02-24T01:25:14.471Z,23.2
2019-02-24T01:26:03.639Z,23.1
2019-02-24T01:26:54.448Z,23.1
2019-02-24T01:27:44.826Z,23.1
2019-02-24T01:28:35.871Z,23.1
2019-02-24T01:29:24.637Z,23
2019-02-24T01:30:15.036Z,23
2019-02-24T01:31:03.761Z,22.9
2019-02-24T01:31:53.763Z,22.9
2019-02-24T01:32:45.125Z,22.9
2019-02-24T01:33:34.658Z,22.9
2019-02-24T01:34:25.291Z,22.9
2019-02-24T01:35:15.093Z,22.8
2019-02-24T01:36:04.010Z,22.8
2019-02-24T01:36:55.700Z,22.8
2019-02-24T01:37:45.235Z,22.7
2019-02-24T01:38:35.033Z,22.8
2019-02-24T01:39:24.748Z,22.7
2019-02-24T01:40:14.900Z,22.6
2019-02-24T01:41:04.849Z,22.6
2019-02-24T01:41:55.038Z,22.6
2019-02-24T01:42:45.546Z,22.6
2019-02-24T01:43:35.581Z,22.5
2019-02-24T01:44:24.925Z,22.4
2019-02-24T01:45:15.510Z,22.5
2019-02-24T01:46:05.227Z,22.4
2019-02-24T01:46:55.619Z,22.4
2019-02-24T01:47:45.150Z,22.3
2019-02-24T01:48:35.914Z,22.3
2019-02-24T01:49:25.584Z,22.3
2019-02-24T01:50:15.054Z,22.2
2019-02-24T01:51:06.383Z,22.2
2019-02-24T01:51:55.705Z,22.2
2019-02-24T01:52:45.510Z,22.2
2019-02-24T01:53:36.545Z,22.1
2019-02-24T01:54:26.680Z,22.1
2019-02-24T01:55:15.838Z,22.1
2019-02-24T01:56:05.639Z,22
2019-02-24T01:56:56.317Z,22
2019-02-24T01:57:46.553Z,22.1
2019-02-24T01:58:45.429Z,21.9
2019-02-24T01:59:27.375Z,21.9
2019-02-24T02:00:16.489Z,21.9
2019-02-24T02:01:06.539Z,21.9
2019-02-24T02:01:56.844Z,21.9
2019-02-24T02:02:46.647Z,21.8
2019-02-24T02:03:36.761Z,21.9
2019-02-24T02:04:26.487Z,21.9
2019-02-24T02:05:16.545Z,21.8
2019-02-24T02:06:06.602Z,21.8
2019-02-24T02:06:56.621Z,21.9
2019-02-24T02:07:47.868Z,21.8
2019-02-24T02:08:37.624Z,21.8
2019-02-24T02:09:27.503Z,21.8
2019-02-24T02:10:18.006Z,21.7
2019-02-24T02:11:06.756Z,21.7
2019-02-24T02:11:57.338Z,21.7
2019-02-24T02:12:47.873Z,21.6
2019-02-24T02:13:37.978Z,21.6
2019-02-24T02:14:27.177Z,21.6
2019-02-24T02:15:18.041Z,21.6
2019-02-24T02:16:08.381Z,21.6
2019-02-24T02:16:58.191Z,21.6
2019-02-24T02:17:47.483Z,21.6
2019-02-24T02:18:38.041Z,21.6
2019-02-24T02:19:28.380Z,21.6
2019-02-24T02:20:18.376Z,21.6
2019-02-24T02:21:08.468Z,21.6
2019-02-24T02:21:58.576Z,21.6
2019-02-24T02:22:48.598Z,21.4
2019-02-24T02:23:37.495Z,21.5
2019-02-24T02:24:28.406Z,21.4
2019-02-24T02:25:17.438Z,21.5
2019-02-24T02:26:07.500Z,21.5
2019-02-24T02:26:57.345Z,21.5
2019-02-24T02:27:47.920Z,21.5
2019-02-24T02:28:47.497Z,21.5
2019-02-24T02:29:27.477Z,21.4
2019-02-24T02:30:17.941Z,21.4
2019-02-24T02:31:08.727Z,21.4
2019-02-24T02:31:58.498Z,21.4
2019-02-24T02:32:48.772Z,21.4
2019-02-24T02:33:39.065Z,21.4
2019-02-24T02:34:28.550Z,21.4
2019-02-24T02:35:18.963Z,21.4
2019-02-24T02:36:08.998Z,21.4
2019-02-24T02:36:59.627Z,21.4
2019-02-24T02:37:49.345Z,21.4
2019-02-24T02:38:38.848Z,21.4
2019-02-24T02:39:29.535Z,21.4
2019-02-24T02:40:19.823Z,21.4
2019-02-24T02:41:09.612Z,21.4
2019-02-24T02:41:59.990Z,21.4
2019-02-24T02:42:49.157Z,21.4
2019-02-24T02:43:40.071Z,21.4
2019-02-24T02:44:30.094Z,21.4
2019-02-24T02:45:19.614Z,21.4
2019-02-24T02:46:09.959Z,21.3
2019-02-24T02:47:00.581Z,21.3
2019-02-24T02:47:50.116Z,21.3
2019-02-24T02:48:40.418Z,21.3
2019-02-24T02:49:30.169Z,21.3
2019-02-24T02:50:20.371Z,21.3
2019-02-24T02:51:10.369Z,21.3
2019-02-24T02:52:00.095Z,21.3
2019-02-24T02:52:50.736Z,21.3
2019-02-24T02:53:40.554Z,21.3
2019-02-24T02:54:30.012Z,21.3
2019-02-24T02:55:20.274Z,21.3
2019-02-24T02:56:13.017Z,21.3
2019-02-24T02:57:00.991Z,21.3
2019-02-24T02:57:51.271Z,21.3
2019-02-24T02:58:39.993Z,21.3
2019-02-24T02:59:31.409Z,21.3
2019-02-24T03:00:20.411Z,21.3
2019-02-24T03:01:10.101Z,21.3
2019-02-24T03:02:01.016Z,21.3
2019-02-24T03:02:50.786Z,21.3
2019-02-24T03:03:40.031Z,21.3
2019-02-24T03:04:31.178Z,21.3
2019-02-24T03:08:02.371Z,21.2
2019-02-24T03:08:52.983Z,21.2
2019-02-24T03:09:43.299Z,21.2
2019-02-24T03:10:34.044Z,21.2
2019-02-24T03:11:24.515Z,21.2
2019-02-24T03:12:13.688Z,21.2
2019-02-24T03:13:04.580Z,21.2
2019-02-24T03:13:54.101Z,21.2
2019-02-24T03:20:34.756Z,21.1
2019-02-24T03:24:44.315Z,21.1
2019-02-24T03:25:35.152Z,21.1
2019-02-24T03:27:15.005Z,21.1
2019-02-24T03:28:05.150Z,21.1
2019-02-24T03:29:05.094Z,21.1
2019-02-24T03:29:45.210Z,21.1
2019-02-24T03:30:35.428Z,21.1
2019-02-24T03:31:25.041Z,21.1
2019-02-24T03:32:15.769Z,21.1
2019-02-24T03:33:05.645Z,21
2019-02-24T03:33:56.023Z,21.1
2019-02-24T03:34:46.272Z,21
2019-02-24T03:35:35.257Z,21.1
2019-02-24T03:36:25.404Z,21
2019-02-24T03:37:15.918Z,21
2019-02-24T03:38:05.978Z,21
2019-02-24T03:38:56.024Z,21
2019-02-24T03:39:46.097Z,21
2019-02-24T03:40:35.589Z,21
2019-02-24T03:41:26.439Z,21
2019-02-24T03:42:16.854Z,21
2019-02-24T03:43:06.285Z,21
2019-02-24T03:43:56.767Z,21
2019-02-24T03:44:46.476Z,20.9
2019-02-24T03:45:36.473Z,21
2019-02-24T03:46:26.538Z,21
2019-02-24T03:47:16.302Z,20.9
2019-02-24T03:48:06.358Z,20.9
2019-02-24T03:48:56.996Z,20.9
2019-02-24T03:49:46.746Z,20.9
2019-02-24T03:50:36.272Z,20.9
2019-02-24T03:51:26.871Z,20.9
2019-02-24T03:52:17.174Z,20.9
2019-02-24T03:53:07.091Z,20.9
2019-02-24T03:53:57.070Z,20.9
2019-02-24T03:54:47.165Z,20.9
2019-02-24T03:55:37.439Z,20.9
2019-02-24T03:56:27.799Z,20.9
2019-02-24T03:57:17.278Z,20.9
2019-02-24T03:58:07.388Z,20.9
2019-02-24T03:58:57.385Z,20.9
2019-02-24T03:59:47.718Z,20.9
2019-02-24T04:00:37.528Z,20.9
2019-02-24T04:01:27.033Z,20.9
2019-02-24T04:02:18.140Z,20.9
2019-02-24T04:03:07.708Z,20.9
2019-02-24T04:03:57.750Z,20.9
2019-02-24T04:04:47.482Z,20.9
2019-02-24T04:05:38.110Z,20.9
2019-02-24T04:06:27.950Z,20.9
2019-02-24T04:07:17.390Z,20.9
2019-02-24T04:08:07.851Z,20.9
2019-02-24T04:08:58.402Z,20.9
2019-02-24T04:09:48.445Z,20.9
2019-02-24T04:10:37.641Z,20.8
2019-02-24T04:11:27.965Z,20.8
2019-02-24T04:12:18.305Z,20.9
2019-02-24T04:13:08.369Z,20.8
2019-02-24T04:13:57.640Z,20.8
2019-02-24T04:14:48.500Z,20.9
2019-02-24T04:15:38.225Z,20.8
2019-02-24T04:16:27.974Z,20.8
2019-02-24T04:17:18.054Z,20.8
2019-02-24T04:18:08.997Z,20.8
2019-02-24T04:18:58.108Z,20.8
2019-02-24T04:19:48.886Z,20.8
2019-02-24T04:20:38.852Z,20.8
2019-02-24T04:21:29.202Z,20.8
2019-02-24T04:22:19.256Z,20.8
2019-02-24T04:23:07.897Z,20.8
2019-02-24T04:23:59.361Z,20.8
2019-02-24T04:24:49.127Z,20.8
2019-02-24T04:25:38.662Z,20.8
2019-02-24T04:26:28.992Z,20.8
2019-02-24T04:27:21.377Z,20.8
2019-02-24T04:28:09.123Z,20.8
2019-02-24T04:29:00.029Z,20.8
2019-02-24T04:29:49.474Z,20.8
2019-02-24T04:30:38.878Z,20.8
2019-02-24T04:31:29.951Z,20.8
2019-02-24T04:32:19.913Z,20.8
2019-02-24T04:33:09.984Z,20.8
2019-02-24T04:33:59.774Z,20.8
2019-02-24T04:34:49.561Z,20.8
2019-02-24T04:35:39.688Z,20.8
2019-02-24T04:36:29.671Z,20.7
2019-02-24T04:37:19.678Z,20.8
2019-02-24T04:38:09.769Z,20.8
2019-02-24T04:38:59.303Z,20.7
2019-02-24T04:39:49.328Z,20.8
2019-02-24T04:40:40.205Z,20.8
2019-02-24T04:41:29.806Z,20.7
2019-02-24T04:42:20.680Z,20.7
2019-02-24T04:43:10.623Z,20.8
2019-02-24T04:44:00.721Z,20.7
2019-02-24T04:44:50.767Z,20.7
2019-02-24T04:45:40.513Z,20.7
2019-02-24T04:46:29.529Z,20.7
2019-02-24T04:47:20.943Z,20.7
2019-02-24T04:48:09.973Z,20.7
2019-02-24T04:49:00.331Z,20.7
2019-02-24T04:49:50.353Z,20.7
2019-02-24T04:50:40.496Z,20.7
2019-02-24T04:51:30.533Z,20.7
2019-02-24T04:52:19.949Z,20.7
2019-02-24T04:53:10.645Z,20.7
2019-02-24T04:54:00.075Z,20.7
2019-02-24T04:54:50.742Z,20.7
2019-02-24T04:55:41.522Z,20.7
2019-02-24T04:56:31.345Z,20.7
2019-02-24T04:57:21.347Z,20.7
2019-02-24T04:58:11.143Z,20.6
2019-02-24T04:59:01.453Z,20.7
2019-02-24T04:59:51.832Z,20.6
2019-02-24T05:00:41.548Z,20.6
2019-02-24T05:01:32.151Z,20.7
2019-02-24T05:02:21.976Z,20.6
2019-02-24T05:03:12.052Z,20.6
2019-02-24T05:04:01.805Z,20.6
2019-02-24T05:04:51.377Z,20.6
2019-02-24T05:05:41.953Z,20.6
2019-02-24T05:06:31.487Z,20.6
2019-02-24T05:07:20.992Z,20.6
2019-02-24T05:08:11.889Z,20.6
2019-02-24T05:09:01.995Z,20.6
2019-02-24T05:09:51.415Z,20.6
2019-02-24T05:10:41.794Z,20.6
2019-02-24T05:11:31.834Z,20.6
2019-02-24T05:12:21.865Z,20.6
2019-02-24T05:13:11.782Z,20.6
2019-02-24T05:14:01.723Z,20.6
2019-02-24T05:14:52.069Z,20.6
2019-02-24T05:15:41.542Z,20.6
2019-02-24T05:16:31.933Z,20.6
2019-02-24T05:17:22.816Z,20.6
2019-02-24T05:18:12.007Z,20.6
2019-02-24T05:19:02.872Z,20.6
2019-02-24T05:19:53.455Z,20.6
2019-02-24T05:20:43.455Z,20.6
2019-02-24T05:21:33.560Z,20.6
2019-02-24T05:22:23.065Z,20.6
2019-02-24T05:23:13.130Z,20.6
2019-02-24T05:24:03.207Z,20.6
2019-02-24T05:24:52.945Z,20.6
2019-02-24T05:25:42.774Z,20.6
2019-02-24T05:26:33.350Z,20.6
2019-02-24T05:27:22.527Z,20.5
2019-02-24T05:28:13.468Z,20.5
2019-02-24T05:29:03.565Z,20.5
2019-02-24T05:29:56.701Z,20.5
2019-02-24T05:30:43.415Z,20.5
2019-02-24T05:31:33.645Z,20.5
2019-02-24T05:32:23.508Z,20.4
2019-02-24T05:33:13.830Z,20.4
2019-02-24T05:34:03.302Z,20.4
2019-02-24T05:34:54.557Z,20.4
2019-02-24T05:35:43.962Z,20.4
2019-02-24T05:36:36.760Z,20.4
2019-02-24T05:37:24.381Z,20.4
2019-02-24T05:38:13.879Z,20.4
2019-02-24T05:39:03.954Z,20.4
2019-02-24T05:39:54.244Z,20.3
2019-02-24T05:40:44.320Z,20.3
2019-02-24T05:41:34.624Z,20.3
2019-02-24T05:42:24.691Z,21.3
2019-02-24T05:43:15.047Z,25.5
2019-02-24T05:44:04.537Z,28.4
2019-02-24T05:44:54.918Z,30.6
2019-02-24T05:45:44.449Z,32.1
2019-02-24T05:46:34.696Z,33.1
2019-02-24T05:47:24.294Z,33.8
2019-02-24T05:48:15.382Z,34.1
2019-02-24T05:49:05.131Z,34.1
2019-02-24T05:49:54.931Z,34
2019-02-24T05:50:44.720Z,34.1
2019-02-24T05:51:34.255Z,34.1
2019-02-24T05:52:25.092Z,33.8
2019-02-24T05:53:14.092Z,33.3
2019-02-24T05:54:04.682Z,32.8
2019-02-24T05:54:57.473Z,32
2019-02-24T05:55:45.561Z,30.9
2019-02-24T05:56:35.927Z,29.9
2019-02-24T05:57:25.156Z,28.9
2019-02-24T05:58:15.067Z,27.9
2019-02-24T05:59:05.796Z,27.1
2019-02-24T06:00:05.698Z,26.5
2019-02-24T06:00:45.371Z,25.9
2019-02-24T06:01:35.748Z,25.6
2019-02-24T06:02:25.800Z,25.3
2019-02-24T06:03:15.391Z,25
2019-02-24T06:06:04.000Z,24.3
2019-02-24T06:06:52.755Z,24.1
2019-02-24T06:07:43.948Z,23.9
2019-02-24T06:08:33.583Z,23.8
2019-02-24T06:09:23.402Z,23.6
2019-02-24T06:10:13.680Z,23.5
2019-02-24T06:11:04.073Z,23.4
2019-02-24T06:11:54.135Z,23.3
2019-02-24T06:12:44.428Z,23.2
2019-02-24T06:13:33.645Z,23.1
2019-02-24T06:14:23.146Z,23.1
2019-02-24T06:15:13.865Z,22.9
2019-02-24T06:16:03.571Z,22.9
2019-02-24T06:16:53.317Z,22.8
2019-02-24T06:17:44.529Z,22.8
2019-02-24T06:18:33.806Z,22.6
2019-02-24T06:19:24.170Z,22.6
2019-02-24T06:20:13.899Z,22.6
2019-02-24T06:21:03.651Z,22.5
2019-02-24T06:21:54.189Z,22.5
2019-02-24T06:22:43.735Z,22.4
2019-02-24T06:23:35.449Z,22.4
2019-02-24T06:24:24.145Z,22.4
2019-02-24T06:25:14.495Z,22.3
2019-02-24T06:26:05.374Z,22.4
2019-02-24T06:26:55.437Z,22.3
2019-02-24T06:27:45.414Z,22.3
2019-02-24T06:28:35.274Z,22.3
2019-02-24T06:29:24.997Z,22.3
2019-02-24T06:30:15.934Z,22.2
2019-02-24T06:31:05.425Z,22.2
2019-02-24T06:31:54.887Z,22.1
2019-02-24T06:32:45.004Z,22.1
2019-02-24T06:33:36.092Z,22.1
2019-02-24T06:34:25.049Z,22.1
2019-02-24T06:35:15.392Z,22.1
2019-02-24T06:36:04.652Z,22
2019-02-24T06:36:54.711Z,22
2019-02-24T06:37:45.296Z,22
2019-02-24T06:38:36.141Z,22
2019-02-24T06:39:25.708Z,21.9
2019-02-24T06:40:15.254Z,22
2019-02-24T06:41:07.458Z,21.9
2019-02-24T06:41:55.812Z,21.9
2019-02-24T06:42:45.324Z,21.9
2019-02-24T06:43:34.343Z,21.9
2019-02-24T06:44:26.013Z,21.8
2019-02-24T06:45:15.246Z,21.9
2019-02-24T06:46:04.748Z,21.8
2019-02-24T06:46:55.946Z,21.8
2019-02-24T06:47:46.891Z,21.8
2019-02-24T06:48:36.665Z,21.8
2019-02-24T06:49:25.861Z,21.8
2019-02-24T06:50:16.461Z,21.8
2019-02-24T06:51:06.267Z,21.8
2019-02-24T06:51:56.605Z,21.8
2019-02-24T06:52:46.801Z,21.7
2019-02-24T06:53:35.880Z,21.7
2019-02-24T06:54:26.388Z,21.7
2019-02-24T06:55:15.955Z,21.7
2019-02-24T06:56:06.310Z,21.7
2019-02-24T06:56:56.545Z,21.6
2019-02-24T06:57:46.642Z,21.7
2019-02-24T06:58:35.384Z,21.6
2019-02-24T06:59:26.032Z,21.6
2019-02-24T07:00:23.877Z,21.6
2019-02-24T07:01:06.427Z,21.6
2019-02-24T07:01:55.577Z,21.6
2019-02-24T07:02:47.015Z,21.6
2019-02-24T07:03:36.892Z,21.6
2019-02-24T07:06:02.722Z,21.6
2019-02-24T07:06:52.033Z,21.5
2019-02-24T07:07:42.889Z,21.6
2019-02-24T07:08:31.851Z,21.5
2019-02-24T07:09:24.730Z,21.5
2019-02-24T07:10:13.090Z,21.4
2019-02-24T07:11:02.295Z,21.4
2019-02-24T07:11:52.392Z,21.4
2019-02-24T07:12:42.497Z,21.5
2019-02-24T07:13:33.497Z,21.5
2019-02-24T07:14:22.259Z,21.4
2019-02-24T07:15:12.683Z,22.5
2019-02-24T07:16:02.678Z,26.6
2019-02-24T07:16:53.143Z,29.4
2019-02-24T07:17:44.296Z,31.3
2019-02-24T07:18:34.339Z,32.8
2019-02-24T07:19:23.546Z,33.8
2019-02-24T07:20:15.252Z,34.4
2019-02-24T07:21:05.034Z,34.6
2019-02-24T07:21:55.099Z,34.5
2019-02-24T07:22:44.511Z,34.3
2019-02-24T07:23:35.416Z,34.3
2019-02-24T07:24:25.241Z,34.2
2019-02-24T07:25:14.507Z,33.8
2019-02-24T07:26:04.797Z,33.2
2019-02-24T07:26:55.094Z,32.6
2019-02-24T07:27:44.878Z,31.6
2019-02-24T07:28:35.178Z,30.6
2019-02-24T07:29:25.826Z,29.6
2019-02-24T07:30:24.180Z,28.5
2019-02-24T07:31:05.729Z,27.4
2019-02-24T07:31:55.442Z,26.9
2019-02-24T07:32:45.783Z,28.1
2019-02-24T07:33:36.174Z,30.6
2019-02-24T07:34:25.441Z,32.4
2019-02-24T07:35:16.261Z,33.6
2019-02-24T07:36:05.293Z,34.4
2019-02-24T07:36:56.140Z,34.9
2019-02-24T07:37:45.048Z,35.3
2019-02-24T07:38:36.173Z,35.3
2019-02-24T07:39:26.278Z,35.1
2019-02-24T07:40:16.567Z,35.1
2019-02-24T07:41:06.073Z,34.8
2019-02-24T07:41:56.092Z,34.4
2019-02-24T07:42:46.727Z,33.8
2019-02-24T07:43:35.520Z,33.1
2019-02-24T07:44:25.825Z,32.2
2019-02-24T07:45:16.352Z,31.2
2019-02-24T07:46:05.325Z,30.3
2019-02-24T07:46:54.856Z,29.3
2019-02-24T07:47:45.942Z,28.4
2019-02-24T07:48:36.297Z,30.9
2019-02-24T07:49:26.109Z,32.6
2019-02-24T07:50:16.214Z,33.8
2019-02-24T07:51:05.936Z,34.7
2019-02-24T07:51:57.132Z,35.1
2019-02-24T07:52:46.350Z,35.5
2019-02-24T07:53:36.875Z,35.7
2019-02-24T07:54:27.237Z,35.6
2019-02-24T07:55:17.292Z,35.4
2019-02-24T07:56:06.302Z,35.1
2019-02-24T07:56:57.184Z,34.8
2019-02-24T07:57:47.307Z,34.1
2019-02-24T07:58:37.303Z,33.4
2019-02-24T07:59:26.252Z,32.5
2019-02-24T08:00:16.032Z,31.6
2019-02-24T08:01:06.942Z,30.7
2019-02-24T08:01:56.774Z,31.6
2019-02-24T08:02:47.127Z,33.3
2019-02-24T08:03:37.104Z,34.4
2019-02-24T08:04:27.438Z,35.2
2019-02-24T08:05:32.407Z,35.6
2019-02-24T08:06:07.801Z,36
2019-02-24T08:06:58.117Z,36.1
2019-02-24T08:07:47.870Z,36.1
2019-02-24T08:08:37.904Z,35.9
2019-02-24T08:09:27.484Z,35.6
2019-02-24T08:10:18.017Z,35.3
2019-02-24T08:11:08.346Z,34.7
2019-02-24T08:11:58.449Z,34.1
2019-02-24T08:12:48.191Z,33.3
2019-02-24T08:13:37.666Z,32.4
2019-02-24T08:14:28.611Z,33.4
2019-02-24T08:15:18.689Z,34.6
2019-02-24T08:16:08.739Z,35.3
2019-02-24T08:16:58.264Z,35.8
2019-02-24T08:17:48.293Z,36.1
2019-02-24T08:18:38.639Z,36.2
2019-02-24T08:19:30.566Z,36
2019-02-24T08:20:19.014Z,35.8
2019-02-24T08:21:10.598Z,35.3
2019-02-24T08:21:59.108Z,34.6
2019-02-24T08:22:49.138Z,34.8
2019-02-24T08:23:39.028Z,35.7
2019-02-24T08:24:30.885Z,36.2
2019-02-24T08:25:18.741Z,36.4
2019-02-24T08:26:59.488Z,36.2
2019-02-24T08:27:49.843Z,35.9
2019-02-24T08:28:39.318Z,35.5
2019-02-24T08:29:28.833Z,34.8
2019-02-24T08:30:19.715Z,33.9
2019-02-24T08:31:09.735Z,34.9
2019-02-24T08:31:58.908Z,35.8
2019-02-24T08:32:49.863Z,36.3
2019-02-24T08:33:39.575Z,36.5
2019-02-24T08:34:29.653Z,36.6
2019-02-24T08:35:19.778Z,36.4
2019-02-24T08:36:09.796Z,36.1
2019-02-24T08:36:59.650Z,35.8
2019-02-24T08:37:49.334Z,35.1
2019-02-24T08:38:42.127Z,34.3
2019-02-24T08:39:30.055Z,33.6
2019-02-24T08:40:20.248Z,34.8
2019-02-24T08:41:09.896Z,35.6
2019-02-24T08:42:00.202Z,36.1
2019-02-24T08:42:50.821Z,36.4
2019-02-24T08:43:40.300Z,36.4
2019-02-24T08:44:32.945Z,36.2
2019-02-24T08:45:20.140Z,35.9
2019-02-24T08:46:10.219Z,35.3
2019-02-24T08:47:00.079Z,34.5
2019-02-24T08:47:49.964Z,35.2
2019-02-24T08:48:39.922Z,36
2019-02-24T08:49:30.454Z,36.5
2019-02-24T08:50:20.730Z,36.8
2019-02-24T08:51:10.827Z,36.8
2019-02-24T08:52:01.497Z,36.6
2019-02-24T08:52:51.185Z,36.4
2019-02-24T08:53:41.004Z,36
2019-02-24T08:54:31.297Z,35.4
2019-02-24T08:55:21.209Z,34.7
2019-02-24T08:56:11.029Z,35.7
2019-02-24T08:57:03.671Z,36.3
2019-02-24T08:57:51.511Z,36.6
2019-02-24T08:58:41.969Z,36.6
2019-02-24T08:59:31.428Z,36.3
2019-02-24T09:00:21.786Z,36
2019-02-24T09:01:11.754Z,35.4
2019-02-24T09:02:02.117Z,34.5
2019-02-24T09:02:53.616Z,33.5
2019-02-24T09:03:40.353Z,32.4
2019-02-24T09:04:32.011Z,31.6
2019-02-24T09:05:20.789Z,30.7
2019-02-24T09:06:12.371Z,30.1
2019-02-24T09:07:02.196Z,29.5
2019-02-24T09:07:52.237Z,29.1
2019-02-24T09:08:40.949Z,28.7
2019-02-24T09:09:31.769Z,28.4
2019-02-24T09:10:22.641Z,28.1
2019-02-24T09:11:12.803Z,27.9
2019-02-24T09:12:01.556Z,27.7
2019-02-24T09:12:52.278Z,27.5
2019-02-24T09:13:42.368Z,27.3
2019-02-24T09:14:32.991Z,27.1
2019-02-24T09:15:22.688Z,26.9
2019-02-24T09:16:12.916Z,26.8
2019-02-24T09:17:02.863Z,26.7
2019-02-24T09:17:52.717Z,26.5
2019-02-24T09:18:42.989Z,26.4
2019-02-24T09:19:33.085Z,26.3
2019-02-24T09:20:23.235Z,26.2
2019-02-24T09:21:12.650Z,26.1
2019-02-24T09:22:02.757Z,29.3
2019-02-24T09:22:53.325Z,31.6
2019-02-24T09:23:43.011Z,33.1
2019-02-24T09:24:31.450Z,34.2
2019-02-24T09:25:22.677Z,34.9
2019-02-24T09:26:13.193Z,35.4
2019-02-24T09:27:03.522Z,35.8
2019-02-24T09:27:53.860Z,35.8
2019-02-24T09:28:43.342Z,35.7
2019-02-24T09:29:32.424Z,35.5
2019-02-24T09:30:22.965Z,35.2
2019-02-24T09:31:12.782Z,34.6
2019-02-24T09:32:02.524Z,33.9
2019-02-24T09:32:53.403Z,33.1
2019-02-24T09:33:44.297Z,32.2
2019-02-24T09:34:34.328Z,31.3
2019-02-24T09:35:23.112Z,32.8
2019-02-24T09:36:13.569Z,34.3
2019-02-24T09:37:03.628Z,35.3
2019-02-24T09:37:54.030Z,35.9
2019-02-24T09:38:44.097Z,36.3
2019-02-24T09:39:34.054Z,36.5
2019-02-24T09:40:24.109Z,36.4
2019-02-24T09:41:14.219Z,36.2
2019-02-24T09:42:04.394Z,35.9
2019-02-24T09:42:54.019Z,35.3
2019-02-24T09:43:44.626Z,36.1
2019-02-24T09:44:33.944Z,36.6
2019-02-24T09:45:25.034Z,36.8
2019-02-24T09:46:15.123Z,36.9
2019-02-24T09:47:05.132Z,36.6
2019-02-24T09:47:57.301Z,36.3
2019-02-24T09:48:44.999Z,35.7
2019-02-24T09:49:35.136Z,34.9
2019-02-24T09:50:25.352Z,35.2
2019-02-24T09:51:15.155Z,36.1
2019-02-24T09:52:04.939Z,36.8
2019-02-24T09:52:53.965Z,37.1
2019-02-24T09:53:45.653Z,37.3
2019-02-24T09:54:35.641Z,37.3
2019-02-24T09:55:25.436Z,37.3
2019-02-24T09:56:15.753Z,36.9
2019-02-24T09:57:04.981Z,36.7
2019-02-24T09:57:55.676Z,36.3
2019-02-24T09:58:45.938Z,35.8
2019-02-24T09:59:35.161Z,35.2
2019-02-24T10:00:28.248Z,34.9
2019-02-24T10:01:21.370Z,36
2019-02-24T10:02:06.144Z,36.7
2019-02-24T10:02:58.129Z,37.1
2019-02-24T10:03:44.879Z,37.3
2019-02-24T10:04:36.053Z,37.4
2019-02-24T10:07:03.863Z,37.1
2019-02-24T10:07:52.756Z,36.7
2019-02-24T10:08:44.209Z,36.3
2019-02-24T10:09:33.996Z,35.7
2019-02-24T10:10:23.760Z,35.1
2019-02-24T10:11:15.937Z,35.7
2019-02-24T10:12:03.944Z,36.4
2019-02-24T10:12:54.603Z,36.8
2019-02-24T10:13:43.817Z,37
2019-02-24T10:14:34.150Z,36.7
2019-02-24T10:15:24.455Z,36.4
2019-02-24T10:16:14.706Z,36
2019-02-24T10:17:03.995Z,35.3
2019-02-24T10:17:54.059Z,34.3
2019-02-24T10:18:44.325Z,33.3
2019-02-24T10:19:35.558Z,32.4
2019-02-24T10:20:25.007Z,31.7
2019-02-24T10:21:14.375Z,31.1
2019-02-24T10:22:04.057Z,30.5
2019-02-24T10:22:54.904Z,30.1
2019-02-24T10:23:44.414Z,29.7
2019-02-24T10:24:34.769Z,29.3
2019-02-24T10:25:25.082Z,29.1
2019-02-24T10:26:14.256Z,28.8
2019-02-24T10:27:05.434Z,28.6
2019-02-24T10:27:54.947Z,28.4
2019-02-24T10:28:45.074Z,28.2
2019-02-24T10:29:35.337Z,28.1
2019-02-24T10:30:25.416Z,27.9
2019-02-24T10:31:24.109Z,27.7
2019-02-24T10:32:04.621Z,27.5
2019-02-24T10:32:55.661Z,27.4
2019-02-24T10:33:45.391Z,27.3
2019-02-24T10:34:35.116Z,27.1
2019-02-24T10:35:24.639Z,26.9
2019-02-24T10:36:15.552Z,26.8
2019-02-24T10:37:05.879Z,26.6
2019-02-24T10:37:55.904Z,26.4
2019-02-24T10:38:45.966Z,26.4
2019-02-24T10:39:40.238Z,26.3
2019-02-24T10:40:25.622Z,26.2
2019-02-24T10:41:15.866Z,26.2
2019-02-24T10:42:06.526Z,26.1
2019-02-24T10:42:55.409Z,26.1
2019-02-24T10:43:46.056Z,26.1
2019-02-24T10:44:36.403Z,26
2019-02-24T10:45:26.151Z,26
2019-02-24T10:46:18.698Z,25.9
2019-02-24T10:47:09.143Z,25.8
2019-02-24T10:47:55.705Z,25.8
2019-02-24T10:48:46.163Z,25.8
2019-02-24T10:49:36.733Z,25.8
2019-02-24T10:50:26.493Z,25.7
2019-02-24T10:51:16.278Z,25.6
2019-02-24T10:52:06.113Z,25.5
2019-02-24T10:52:57.355Z,25.5
2019-02-24T10:53:46.986Z,25.5
2019-02-24T10:54:36.820Z,25.4
2019-02-24T10:55:27.418Z,25.4
2019-02-24T10:56:17.192Z,25.4
2019-02-24T10:57:13.164Z,25.4
2019-02-24T10:57:57.306Z,25.3
2019-02-24T10:58:47.075Z,25.3
2019-02-24T10:59:37.715Z,25.3
2019-02-24T11:00:26.829Z,25.3
2019-02-24T11:01:17.507Z,25.3
2019-02-24T11:02:07.333Z,25.3
2019-02-24T11:02:57.613Z,25.2
2019-02-24T11:03:47.735Z,25.1
2019-02-24T11:04:37.765Z,25.2
2019-02-24T11:05:27.847Z,25.1
2019-02-24T11:06:17.309Z,25.1
2019-02-24T11:07:07.368Z,25
2019-02-24T11:07:57.682Z,25
2019-02-24T11:08:48.087Z,25
2019-02-24T11:09:37.475Z,25
2019-02-24T11:10:28.430Z,24.9
2019-02-24T11:11:18.182Z,25
2019-02-24T11:12:10.585Z,24.9
2019-02-24T11:12:58.002Z,24.9
2019-02-24T11:13:48.392Z,24.9
2019-02-24T11:14:38.392Z,24.9
2019-02-24T11:15:27.247Z,24.9
2019-02-24T11:16:17.942Z,24.8
2019-02-24T11:17:22.154Z,24.8
2019-02-24T11:17:58.350Z,24.8
2019-02-24T11:18:48.241Z,24.8
2019-02-24T11:19:39.014Z,24.8
2019-02-24T11:20:28.576Z,24.8
2019-02-24T11:21:18.627Z,24.7
2019-02-24T11:22:08.144Z,24.7
2019-02-24T11:23:12.799Z,24.7
2019-02-24T11:23:48.743Z,24.6
2019-02-24T11:24:38.254Z,24.6
2019-02-24T11:25:30.743Z,24.6
2019-02-24T11:26:19.174Z,24.6
2019-02-24T11:27:08.491Z,24.6